sensor_id;sensor_type;location;lat;lon;timestamp;pressure;altitude;pressure_sealevel;temperature;humidity
5522;BME280;2783;48.730;8.006;2023-03-03T00:01:24;100423.66;;;3.33;92.85
5522;BME280;2783;48.730;8.006;2023-03-03T00:03:52;100421.06;;;3.36;93.43
5522;BME280;2783;48.730;8.006;2023-03-03T00:06:18;100432.44;;;3.38;93.84
5522;BME280;2783;48.730;8.006;2023-03-03T00:08:43;100437.75;;;3.47;93.55
5522;BME280;2783;48.730;8.006;2023-03-03T00:11:09;100434.22;;;3.48;93.99
5522;BME280;2783;48.730;8.006;2023-03-03T00:13:53;100428.13;;;3.52;94.27
5522;BME280;2783;48.730;8.006;2023-03-03T00:16:30;100424.63;;;3.60;94.05
5522;BME280;2783;48.730;8.006;2023-03-03T00:18:56;100427.25;;;3.65;93.91
5522;BME280;2783;48.730;8.006;2023-03-03T00:21:23;100422.00;;;3.68;93.91
5522;BME280;2783;48.730;8.006;2023-03-03T00:23:50;100415.00;;;3.70;93.76
5522;BME280;2783;48.730;8.006;2023-03-03T00:26:23;100415.88;;;3.73;93.76
5522;BME280;2783;48.730;8.006;2023-03-03T00:28:51;100417.63;;;3.77;93.33
5522;BME280;2783;48.730;8.006;2023-03-03T00:31:18;100415.88;;;3.79;93.34
5522;BME280;2783;48.730;8.006;2023-03-03T00:33:48;100420.28;;;3.85;92.91
5522;BME280;2783;48.730;8.006;2023-03-03T00:38:40;100422.00;;;3.86;92.36
5522;BME280;2783;48.730;8.006;2023-03-03T00:41:25;100422.91;;;3.85;91.97
5522;BME280;2783;48.730;8.006;2023-03-03T00:43:51;100420.25;;;3.76;92.50
5522;BME280;2783;48.730;8.006;2023-03-03T00:46:17;100426.41;;;3.76;93.05
5522;BME280;2783;48.730;8.006;2023-03-03T00:48:43;100421.13;;;3.81;92.54
5522;BME280;2783;48.730;8.006;2023-03-03T00:53:47;100415.88;;;3.81;92.10
5522;BME280;2783;48.730;8.006;2023-03-03T00:56:12;100426.41;;;3.79;91.98
5522;BME280;2783;48.730;8.006;2023-03-03T00:58:37;100423.78;;;3.72;92.32
5522;BME280;2783;48.730;8.006;2023-03-03T01:01:03;100416.75;;;3.68;91.73
5522;BME280;2783;48.730;8.006;2023-03-03T01:03:28;100412.34;;;3.59;92.24
5522;BME280;2783;48.730;8.006;2023-03-03T01:05:53;100418.47;;;3.51;92.48
5522;BME280;2783;48.730;8.006;2023-03-03T01:08:19;100426.34;;;3.46;92.68
5522;BME280;2783;48.730;8.006;2023-03-03T01:10:53;100421.97;;;3.42;92.26
5522;BME280;2783;48.730;8.006;2023-03-03T01:13:21;100417.56;;;3.38;92.87
5522;BME280;2783;48.730;8.006;2023-03-03T01:15:47;100418.41;;;3.33;93.20
5522;BME280;2783;48.730;8.006;2023-03-03T01:18:13;100422.81;;;3.31;93.43
5522;BME280;2783;48.730;8.006;2023-03-03T01:20:39;100415.78;;;3.24;93.41
5522;BME280;2783;48.730;8.006;2023-03-03T01:23:04;100415.75;;;3.18;93.39
5522;BME280;2783;48.730;8.006;2023-03-03T01:25:29;100412.19;;;3.08;93.86
5522;BME280;2783;48.730;8.006;2023-03-03T01:27:55;100404.31;;;3.04;93.66
5522;BME280;2783;48.730;8.006;2023-03-03T01:30:20;100408.66;;;2.99;94.14
5522;BME280;2783;48.730;8.006;2023-03-03T01:32:46;100405.13;;;2.92;94.41
5522;BME280;2783;48.730;8.006;2023-03-03T01:35:11;100402.47;;;2.82;94.37
5522;BME280;2783;48.730;8.006;2023-03-03T01:37:36;100412.94;;;2.76;94.88
5522;BME280;2783;48.730;8.006;2023-03-03T01:40:03;100414.66;;;2.69;94.96
5522;BME280;2783;48.730;8.006;2023-03-03T01:42:28;100421.63;;;2.62;95.42
5522;BME280;2783;48.730;8.006;2023-03-03T01:47:38;100432.91;;;2.46;94.83
5522;BME280;2783;48.730;8.006;2023-03-03T01:50:09;100422.34;;;2.39;95.53
5522;BME280;2783;48.730;8.006;2023-03-03T01:52:37;100419.69;;;2.31;96.03
5522;BME280;2783;48.730;8.006;2023-03-03T01:55:05;100416.13;;;2.23;95.31
5522;BME280;2783;48.730;8.006;2023-03-03T01:57:34;100412.59;;;2.18;95.57
5522;BME280;2783;48.730;8.006;2023-03-03T02:00:01;100418.69;;;2.16;96.12
5522;BME280;2783;48.730;8.006;2023-03-03T02:02:26;100409.94;;;2.14;95.92
5522;BME280;2783;48.730;8.006;2023-03-03T02:04:52;100410.75;;;2.05;96.34
5522;BME280;2783;48.730;8.006;2023-03-03T02:07:18;100405.50;;;2.02;97.17
5522;BME280;2783;48.730;8.006;2023-03-03T02:12:13;100396.69;;;1.94;97.65
5522;BME280;2783;48.730;8.006;2023-03-03T02:14:40;100391.44;;;1.93;97.52
5522;BME280;2783;48.730;8.006;2023-03-03T02:17:05;100388.75;;;1.90;97.51
5522;BME280;2783;48.730;8.006;2023-03-03T02:21:56;100392.22;;;1.84;97.72
5522;BME280;2783;48.730;8.006;2023-03-03T02:24:24;100391.31;;;1.78;97.84
5522;BME280;2783;48.730;8.006;2023-03-03T02:26:51;100389.50;;;1.75;97.94
5522;BME280;2783;48.730;8.006;2023-03-03T02:29:17;100396.47;;;1.70;97.34
5522;BME280;2783;48.730;8.006;2023-03-03T02:31:42;100392.09;;;1.69;98.20
5522;BME280;2783;48.730;8.006;2023-03-03T02:34:10;100390.31;;;1.67;98.26
5522;BME280;2783;48.730;8.006;2023-03-03T02:36:36;100385.94;;;1.64;98.30
5522;BME280;2783;48.730;8.006;2023-03-03T02:39:19;100389.38;;;1.60;98.56
5522;BME280;2783;48.730;8.006;2023-03-03T02:44:29;100390.16;;;1.50;98.14
5522;BME280;2783;48.730;8.006;2023-03-03T02:46:55;100398.84;;;1.45;98.47
5522;BME280;2783;48.730;8.006;2023-03-03T02:49:22;100396.16;;;1.40;99.14
5522;BME280;2783;48.730;8.006;2023-03-03T02:51:48;100400.56;;;1.40;99.41
5522;BME280;2783;48.730;8.006;2023-03-03T02:54:14;100401.41;;;1.40;99.78
5522;BME280;2783;48.730;8.006;2023-03-03T02:56:39;100404.88;;;1.38;99.88
5522;BME280;2783;48.730;8.006;2023-03-03T02:59:05;100405.78;;;1.38;98.94
5522;BME280;2783;48.730;8.006;2023-03-03T03:01:30;100408.38;;;1.35;99.72
5522;BME280;2783;48.730;8.006;2023-03-03T03:04:01;100403.94;;;1.29;98.99
5522;BME280;2783;48.730;8.006;2023-03-03T03:06:26;100412.63;;;1.25;100.00
5522;BME280;2783;48.730;8.006;2023-03-03T03:08:52;100413.47;;;1.23;100.00
5522;BME280;2783;48.730;8.006;2023-03-03T03:11:17;100413.47;;;1.23;99.76
5522;BME280;2783;48.730;8.006;2023-03-03T03:13:42;100403.81;;;1.19;99.30
5522;BME280;2783;48.730;8.006;2023-03-03T03:16:09;100404.69;;;1.18;99.75
5522;BME280;2783;48.730;8.006;2023-03-03T03:18:34;100411.66;;;1.19;100.00
5522;BME280;2783;48.730;8.006;2023-03-03T03:21:06;100406.44;;;1.19;100.00
5522;BME280;2783;48.730;8.006;2023-03-03T03:23:33;100423.03;;;1.18;100.00
5522;BME280;2783;48.730;8.006;2023-03-03T03:25:58;100418.66;;;1.17;100.00
5522;BME280;2783;48.730;8.006;2023-03-03T03:28:23;100421.22;;;1.14;100.00
5522;BME280;2783;48.730;8.006;2023-03-03T03:30:49;100418.56;;;1.11;100.00
5522;BME280;2783;48.730;8.006;2023-03-03T03:33:15;100421.16;;;1.08;100.00
5522;BME280;2783;48.730;8.006;2023-03-03T03:35:40;100419.41;;;1.07;100.00
5522;BME280;2783;48.730;8.006;2023-03-03T03:38:09;100428.09;;;1.06;100.00
5522;BME280;2783;48.730;8.006;2023-03-03T03:40:35;100418.50;;;1.03;100.00
5522;BME280;2783;48.730;8.006;2023-03-03T03:43:00;100427.22;;;1.04;100.00
5522;BME280;2783;48.730;8.006;2023-03-03T03:45:25;100435.91;;;1.00;100.00
5522;BME280;2783;48.730;8.006;2023-03-03T03:47:50;100434.09;;;0.96;100.00
5522;BME280;2783;48.730;8.006;2023-03-03T03:50:16;100439.31;;;0.93;100.00
5522;BME280;2783;48.730;8.006;2023-03-03T03:52:41;100436.66;;;0.91;100.00
5522;BME280;2783;48.730;8.006;2023-03-03T03:55:07;100446.31;;;0.94;100.00
5522;BME280;2783;48.730;8.006;2023-03-03T03:57:33;100440.19;;;0.93;100.00
5522;BME280;2783;48.730;8.006;2023-03-03T03:59:58;100434.91;;;0.90;100.00
5522;BME280;2783;48.730;8.006;2023-03-03T04:02:23;100439.22;;;0.87;100.00
5522;BME280;2783;48.730;8.006;2023-03-03T04:04:49;100446.19;;;0.85;100.00
5522;BME280;2783;48.730;8.006;2023-03-03T04:07:14;100431.34;;;0.84;100.00
5522;BME280;2783;48.730;8.006;2023-03-03T04:09:39;100433.97;;;0.84;100.00
5522;BME280;2783;48.730;8.006;2023-03-03T04:12:05;100439.25;;;0.88;100.00
5522;BME280;2783;48.730;8.006;2023-03-03T04:14:30;100431.44;;;0.91;100.00
5522;BME280;2783;48.730;8.006;2023-03-03T04:16:55;100437.56;;;0.92;100.00
5522;BME280;2783;48.730;8.006;2023-03-03T04:19:21;100432.34;;;0.93;100.00
5522;BME280;2783;48.730;8.006;2023-03-03T04:21:46;100425.38;;;0.94;100.00
5522;BME280;2783;48.730;8.006;2023-03-03T04:24:12;100427.13;;;0.95;100.00
5522;BME280;2783;48.730;8.006;2023-03-03T04:26:37;100427.13;;;0.95;100.00
5522;BME280;2783;48.730;8.006;2023-03-03T04:29:02;100434.06;;;0.94;100.00
5522;BME280;2783;48.730;8.006;2023-03-03T04:31:27;100439.31;;;0.93;100.00
5522;BME280;2783;48.730;8.006;2023-03-03T04:33:53;100431.44;;;0.91;100.00
5522;BME280;2783;48.730;8.006;2023-03-03T04:36:18;100434.81;;;0.84;100.00
5522;BME280;2783;48.730;8.006;2023-03-03T04:38:44;100437.38;;;0.78;100.00
5522;BME280;2783;48.730;8.006;2023-03-03T04:41:09;100443.41;;;0.73;100.00
5522;BME280;2783;48.730;8.006;2023-03-03T04:43:34;100436.41;;;0.72;100.00
5522;BME280;2783;48.730;8.006;2023-03-03T04:46:00;100432.91;;;0.73;100.00
5522;BME280;2783;48.730;8.006;2023-03-03T04:48:25;100449.53;;;0.75;100.00
5522;BME280;2783;48.730;8.006;2023-03-03T04:50:50;100437.34;;;0.77;100.00
5522;BME280;2783;48.730;8.006;2023-03-03T04:53:16;100440.00;;;0.78;100.00
5522;BME280;2783;48.730;8.006;2023-03-03T04:55:41;100449.59;;;0.81;100.00
5522;BME280;2783;48.730;8.006;2023-03-03T04:58:06;100449.72;;;0.87;100.00
5522;BME280;2783;48.730;8.006;2023-03-03T05:00:34;100444.53;;;0.93;100.00
5522;BME280;2783;48.730;8.006;2023-03-03T05:02:59;100449.00;;;1.01;100.00
5522;BME280;2783;48.730;8.006;2023-03-03T05:05:25;100457.84;;;1.09;100.00
5522;BME280;2783;48.730;8.006;2023-03-03T05:07:50;100451.84;;;1.18;100.00
5522;BME280;2783;48.730;8.006;2023-03-03T05:10:15;100450.16;;;1.24;100.00
5522;BME280;2783;48.730;8.006;2023-03-03T05:12:41;100450.25;;;1.32;100.00
5522;BME280;2783;48.730;8.006;2023-03-03T05:15:06;100444.19;;;1.36;100.00
5522;BME280;2783;48.730;8.006;2023-03-03T05:17:31;100452.13;;;1.44;100.00
5522;BME280;2783;48.730;8.006;2023-03-03T05:19:57;100454.84;;;1.54;100.00
5522;BME280;2783;48.730;8.006;2023-03-03T05:22:22;100453.19;;;1.62;100.00
5522;BME280;2783;48.730;8.006;2023-03-03T05:24:48;100454.13;;;1.70;100.00
5522;BME280;2783;48.730;8.006;2023-03-03T05:27:13;100463.84;;;1.77;100.00
5522;BME280;2783;48.730;8.006;2023-03-03T05:29:39;100467.34;;;1.79;100.00
5522;BME280;2783;48.730;8.006;2023-03-03T05:32:04;100456.00;;;1.83;100.00
5522;BME280;2783;48.730;8.006;2023-03-03T05:34:29;100451.69;;;1.90;100.00
5522;BME280;2783;48.730;8.006;2023-03-03T05:36:54;100461.41;;;1.98;100.00
5522;BME280;2783;48.730;8.006;2023-03-03T05:39:20;100461.44;;;2.04;100.00
5522;BME280;2783;48.730;8.006;2023-03-03T05:41:45;100455.34;;;2.07;100.00
5522;BME280;2783;48.730;8.006;2023-03-03T05:44:10;100475.47;;;2.09;100.00
5522;BME280;2783;48.730;8.006;2023-03-03T05:46:36;100466.75;;;2.10;100.00
5522;BME280;2783;48.730;8.006;2023-03-03T05:49:01;100471.13;;;2.11;100.00
5522;BME280;2783;48.730;8.006;2023-03-03T05:51:26;100467.69;;;2.15;100.00
5522;BME280;2783;48.730;8.006;2023-03-03T05:53:51;100468.56;;;2.17;100.00
5522;BME280;2783;48.730;8.006;2023-03-03T05:56:17;100478.22;;;2.21;100.00
5522;BME280;2783;48.730;8.006;2023-03-03T05:58:42;100477.38;;;2.25;100.00
5522;BME280;2783;48.730;8.006;2023-03-03T06:01:07;100479.16;;;2.29;100.00
5522;BME280;2783;48.730;8.006;2023-03-03T06:03:33;100480.94;;;2.33;100.00
5522;BME280;2783;48.730;8.006;2023-03-03T06:05:58;100479.22;;;2.38;100.00
5522;BME280;2783;48.730;8.006;2023-03-03T06:08:23;100488.00;;;2.40;100.00
5522;BME280;2783;48.730;8.006;2023-03-03T06:10:48;100492.38;;;2.43;100.00
5522;BME280;2783;48.730;8.006;2023-03-03T06:13:14;100493.28;;;2.43;100.00
5522;BME280;2783;48.730;8.006;2023-03-03T06:15:39;100494.13;;;2.42;100.00
5522;BME280;2783;48.730;8.006;2023-03-03T06:18:04;100488.00;;;2.40;100.00
5522;BME280;2783;48.730;8.006;2023-03-03T06:20:29;100489.78;;;2.44;100.00
5522;BME280;2783;48.730;8.006;2023-03-03T06:22:55;100493.28;;;2.46;100.00
5522;BME280;2783;48.730;8.006;2023-03-03T06:25:21;100499.44;;;2.50;100.00
5522;BME280;2783;48.730;8.006;2023-03-03T06:27:46;100506.47;;;2.54;100.00
5522;BME280;2783;48.730;8.006;2023-03-03T06:30:11;100509.97;;;2.54;100.00
5522;BME280;2783;48.730;8.006;2023-03-03T06:32:37;100510.00;;;2.57;100.00
5522;BME280;2783;48.730;8.006;2023-03-03T06:35:02;100510.00;;;2.62;100.00
5522;BME280;2783;48.730;8.006;2023-03-03T06:37:28;100512.69;;;2.63;100.00
5522;BME280;2783;48.730;8.006;2023-03-03T06:39:53;100517.06;;;2.67;100.00
5522;BME280;2783;48.730;8.006;2023-03-03T06:42:19;100510.97;;;2.70;100.00
5522;BME280;2783;48.730;8.006;2023-03-03T06:44:45;100511.88;;;2.75;100.00
5522;BME280;2783;48.730;8.006;2023-03-03T06:47:10;100510.13;;;2.79;100.00
5522;BME280;2783;48.730;8.006;2023-03-03T06:49:35;100519.78;;;2.83;100.00
5522;BME280;2783;48.730;8.006;2023-03-03T06:52:01;100524.22;;;2.87;100.00
5522;BME280;2783;48.730;8.006;2023-03-03T06:54:33;100530.34;;;2.92;100.00
5522;BME280;2783;48.730;8.006;2023-03-03T06:57:00;100533.88;;;2.94;100.00
5522;BME280;2783;48.730;8.006;2023-03-03T06:59:29;100538.28;;;2.98;100.00
5522;BME280;2783;48.730;8.006;2023-03-03T07:01:54;100546.19;;;3.01;100.00
5522;BME280;2783;48.730;8.006;2023-03-03T07:04:24;100551.41;;;2.98;100.00
5522;BME280;2783;48.730;8.006;2023-03-03T07:06:52;100543.56;;;3.07;100.00
5522;BME280;2783;48.730;8.006;2023-03-03T07:09:23;100541.00;;;3.10;100.00
5522;BME280;2783;48.730;8.006;2023-03-03T07:11:49;100548.91;;;3.16;100.00
5522;BME280;2783;48.730;8.006;2023-03-03T07:14:15;100555.06;;;3.21;99.84
5522;BME280;2783;48.730;8.006;2023-03-03T07:16:42;100548.94;;;3.25;100.00
5522;BME280;2783;48.730;8.006;2023-03-03T07:19:13;100551.63;;;3.31;99.89
5522;BME280;2783;48.730;8.006;2023-03-03T07:21:41;100550.75;;;3.36;99.14
5522;BME280;2783;48.730;8.006;2023-03-03T07:26:34;100551.72;;;3.53;99.61
5522;BME280;2783;48.730;8.006;2023-03-03T07:29:13;100558.75;;;3.59;99.35
5522;BME280;2783;48.730;8.006;2023-03-03T07:31:44;100556.13;;;3.63;98.99
5522;BME280;2783;48.730;8.006;2023-03-03T07:37:12;100560.56;;;3.78;98.45
5522;BME280;2783;48.730;8.006;2023-03-03T07:39:42;100564.97;;;3.80;98.28
5522;BME280;2783;48.730;8.006;2023-03-03T07:44:52;100566.72;;;3.87;98.26
5522;BME280;2783;48.730;8.006;2023-03-03T07:47:20;100557.97;;;3.90;98.00
5522;BME280;2783;48.730;8.006;2023-03-03T07:49:49;100560.63;;;4.02;98.03
5522;BME280;2783;48.730;8.006;2023-03-03T07:52:26;100558.91;;;4.10;97.30
5522;BME280;2783;48.730;8.006;2023-03-03T07:54:52;100558.03;;;4.16;97.01
5522;BME280;2783;48.730;8.006;2023-03-03T07:57:19;100570.31;;;4.26;97.24
5522;BME280;2783;48.730;8.006;2023-03-03T08:04:52;100568.63;;;4.59;96.38
5522;BME280;2783;48.730;8.006;2023-03-03T08:07:19;100572.13;;;4.72;96.10
5522;BME280;2783;48.730;8.006;2023-03-03T08:09:50;100578.28;;;4.86;95.78
5522;BME280;2783;48.730;8.006;2023-03-03T08:17:37;100584.38;;;5.09;94.31
5522;BME280;2783;48.730;8.006;2023-03-03T08:20:07;100589.59;;;5.24;94.09
5522;BME280;2783;48.730;8.006;2023-03-03T08:22:48;100584.34;;;5.28;92.53
5522;BME280;2783;48.730;8.006;2023-03-03T08:25:13;100573.78;;;5.30;91.33
5522;BME280;2783;48.730;8.006;2023-03-03T08:27:38;100583.44;;;5.42;90.76
5522;BME280;2783;48.730;8.006;2023-03-03T08:30:04;100581.66;;;5.47;89.15
5522;BME280;2783;48.730;8.006;2023-03-03T08:32:29;100591.28;;;5.61;89.17
5522;BME280;2783;48.730;8.006;2023-03-03T08:34:54;100593.03;;;5.68;89.10
5522;BME280;2783;48.730;8.006;2023-03-03T08:37:20;100584.19;;;5.74;88.32
5522;BME280;2783;48.730;8.006;2023-03-03T08:39:45;100592.97;;;5.77;87.85
5522;BME280;2783;48.730;8.006;2023-03-03T08:42:10;100585.88;;;5.90;86.71
5522;BME280;2783;48.730;8.006;2023-03-03T08:44:35;100584.97;;;6.00;85.61
5522;BME280;2783;48.730;8.006;2023-03-03T08:47:01;100586.66;;;6.11;84.86
5522;BME280;2783;48.730;8.006;2023-03-03T08:49:26;100581.34;;;6.19;84.28
5522;BME280;2783;48.730;8.006;2023-03-03T08:51:51;100591.84;;;6.29;84.85
5522;BME280;2783;48.730;8.006;2023-03-03T08:54:16;100587.41;;;6.37;83.09
5522;BME280;2783;48.730;8.006;2023-03-03T08:56:42;100588.19;;;6.50;82.60
5522;BME280;2783;48.730;8.006;2023-03-03T08:59:07;100591.69;;;6.55;80.58
5522;BME280;2783;48.730;8.006;2023-03-03T09:01:33;100586.44;;;6.49;78.36
5522;BME280;2783;48.730;8.006;2023-03-03T09:03:58;100587.19;;;6.64;76.43
5522;BME280;2783;48.730;8.006;2023-03-03T09:06:24;100586.19;;;6.84;75.70
5522;BME280;2783;48.730;8.006;2023-03-03T09:08:49;100582.44;;;7.04;74.17
5522;BME280;2783;48.730;8.006;2023-03-03T09:11:18;100595.44;;;7.27;72.50
5522;BME280;2783;48.730;8.006;2023-03-03T09:13:46;100591.81;;;7.35;70.99
5522;BME280;2783;48.730;8.006;2023-03-03T09:16:17;100587.03;;;7.70;70.70
5522;BME280;2783;48.730;8.006;2023-03-03T09:18:42;100584.91;;;7.96;69.19
5522;BME280;2783;48.730;8.006;2023-03-03T09:21:21;100594.88;;;8.45;67.54
5522;BME280;2783;48.730;8.006;2023-03-03T09:23:48;100587.44;;;9.19;65.25
5522;BME280;2783;48.730;8.006;2023-03-03T09:26:25;100595.28;;;9.71;63.35
5522;BME280;2783;48.730;8.006;2023-03-03T09:29:17;100597.94;;;10.15;59.64
5522;BME280;2783;48.730;8.006;2023-03-03T09:31:50;100597.78;;;10.21;56.15
5522;BME280;2783;48.730;8.006;2023-03-03T09:36:59;100612.47;;;10.39;57.01
5522;BME280;2783;48.730;8.006;2023-03-03T09:39:25;100606.63;;;10.61;53.33
5522;BME280;2783;48.730;8.006;2023-03-03T09:57:15;100613.84;;;10.56;55.32
5522;BME280;2783;48.730;8.006;2023-03-03T10:02:39;100617.88;;;11.09;54.92
5522;BME280;2783;48.730;8.006;2023-03-03T10:07:59;100609.41;;;13.06;49.71
5522;BME280;2783;48.730;8.006;2023-03-03T10:10:34;100607.03;;;13.50;47.89
5522;BME280;2783;48.730;8.006;2023-03-03T10:13:14;100614.25;;;13.97;46.99
5522;BME280;2783;48.730;8.006;2023-03-03T10:18:34;100612.31;;;14.91;45.47
5522;BME280;2783;48.730;8.006;2023-03-03T10:26:20;100597.94;;;15.35;44.10
5522;BME280;2783;48.730;8.006;2023-03-03T10:36:48;100604.88;;;16.20;40.75
5522;BME280;2783;48.730;8.006;2023-03-03T10:42:16;100605.78;;;16.39;41.66
5522;BME280;2783;48.730;8.006;2023-03-03T10:52:43;100617.41;;;16.95;40.07
5522;BME280;2783;48.730;8.006;2023-03-03T11:00:30;100607.78;;;17.08;37.97
5522;BME280;2783;48.730;8.006;2023-03-03T11:05:27;100607.06;;;17.57;38.77
5522;BME280;2783;48.730;8.006;2023-03-03T11:07:55;100606.47;;;18.02;39.20
5522;BME280;2783;48.730;8.006;2023-03-03T11:13:17;100605.41;;;17.72;36.54
5522;BME280;2783;48.730;8.006;2023-03-03T11:18:34;100599.22;;;18.52;36.77
5522;BME280;2783;48.730;8.006;2023-03-03T11:31:16;100594.47;;;18.73;35.97
5522;BME280;2783;48.730;8.006;2023-03-03T11:39:04;100588.91;;;18.76;34.79
5522;BME280;2783;48.730;8.006;2023-03-03T11:41:41;100576.06;;;18.32;36.40
5522;BME280;2783;48.730;8.006;2023-03-03T11:44:17;100573.94;;;18.86;37.58
5522;BME280;2783;48.730;8.006;2023-03-03T11:49:46;100574.53;;;18.91;35.76
5522;BME280;2783;48.730;8.006;2023-03-03T11:52:04;100573.41;;;18.64;35.93
5522;BME280;2783;48.730;8.006;2023-03-03T12:04:44;100558.44;;;19.50;34.20
5522;BME280;2783;48.730;8.006;2023-03-03T12:07:27;100545.34;;;19.58;32.57
5522;BME280;2783;48.730;8.006;2023-03-03T12:12:27;100542.84;;;19.69;34.23
5522;BME280;2783;48.730;8.006;2023-03-03T12:15:08;100540.72;;;19.74;32.57
5522;BME280;2783;48.730;8.006;2023-03-03T12:17:43;100533.47;;;19.60;33.83
5522;BME280;2783;48.730;8.006;2023-03-03T12:20:17;100537.44;;;19.69;33.21
5522;BME280;2783;48.730;8.006;2023-03-03T12:22:49;100521.25;;;19.69;33.24
5522;BME280;2783;48.730;8.006;2023-03-03T12:25:34;100533.78;;;19.70;32.50
5522;BME280;2783;48.730;8.006;2023-03-03T12:28:19;100517.78;;;20.09;32.87
5522;BME280;2783;48.730;8.006;2023-03-03T12:31:00;100516.28;;;20.19;33.00
5522;BME280;2783;48.730;8.006;2023-03-03T12:41:34;100522.13;;;19.70;31.93
5522;BME280;2783;48.730;8.006;2023-03-03T12:48:57;100513.03;;;19.71;32.83
5522;BME280;2783;48.730;8.006;2023-03-03T12:51:30;100517.41;;;20.01;32.00
5522;BME280;2783;48.730;8.006;2023-03-03T12:56:25;100517.41;;;20.29;32.15
5522;BME280;2783;48.730;8.006;2023-03-03T12:59:40;100511.44;;;20.24;32.67
5522;BME280;2783;48.730;8.006;2023-03-03T13:07:15;100501.38;;;20.12;32.04
5522;BME280;2783;48.730;8.006;2023-03-03T13:12:14;100505.63;;;20.02;31.38
5522;BME280;2783;48.730;8.006;2023-03-03T13:17:18;100500.47;;;19.41;33.68
5522;BME280;2783;48.730;8.006;2023-03-03T13:20:00;100501.84;;;19.62;33.24
5522;BME280;2783;48.730;8.006;2023-03-03T13:25:02;100490.88;;;19.51;32.33
5522;BME280;2783;48.730;8.006;2023-03-03T13:27:31;100489.25;;;19.63;32.24
5522;BME280;2783;48.730;8.006;2023-03-03T13:30:00;100491.94;;;19.91;32.98
5522;BME280;2783;48.730;8.006;2023-03-03T13:32:30;100496.84;;;20.27;32.73
5522;BME280;2783;48.730;8.006;2023-03-03T13:35:00;100489.22;;;20.05;31.87
5522;BME280;2783;48.730;8.006;2023-03-03T13:37:31;100492.28;;;19.29;32.54
5522;BME280;2783;48.730;8.006;2023-03-03T13:44:49;100491.06;;;20.33;33.30
5522;BME280;2783;48.730;8.006;2023-03-03T13:52:22;100484.03;;;19.88;33.02
5522;BME280;2783;48.730;8.006;2023-03-03T13:57:58;100478.72;;;19.73;33.53
5522;BME280;2783;48.730;8.006;2023-03-03T14:00:26;100479.19;;;19.51;32.53
5522;BME280;2783;48.730;8.006;2023-03-03T14:24:10;100458.53;;;17.18;37.38
5522;BME280;2783;48.730;8.006;2023-03-03T14:29:23;100468.97;;;16.90;39.10
5522;BME280;2783;48.730;8.006;2023-03-03T14:31:55;100471.75;;;16.53;39.54
5522;BME280;2783;48.730;8.006;2023-03-03T14:36:56;100465.16;;;15.67;40.00
5522;BME280;2783;48.730;8.006;2023-03-03T14:39:32;100462.59;;;15.25;40.25
5522;BME280;2783;48.730;8.006;2023-03-03T14:41:57;100457.16;;;15.07;40.53
5522;BME280;2783;48.730;8.006;2023-03-03T14:44:24;100452.13;;;14.79;42.63
5522;BME280;2783;48.730;8.006;2023-03-03T14:49:37;100459.94;;;14.42;42.76
5522;BME280;2783;48.730;8.006;2023-03-03T14:54:41;100458.59;;;14.09;43.24
5522;BME280;2783;48.730;8.006;2023-03-03T14:57:17;100462.06;;;13.89;43.78
5522;BME280;2783;48.730;8.006;2023-03-03T14:59:59;100459.19;;;13.94;44.47
5522;BME280;2783;48.730;8.006;2023-03-03T15:02:29;100451.63;;;13.83;44.58
5522;BME280;2783;48.730;8.006;2023-03-03T15:05:10;100444.50;;;13.82;44.01
5522;BME280;2783;48.730;8.006;2023-03-03T15:07:37;100451.75;;;13.80;45.00
5522;BME280;2783;48.730;8.006;2023-03-03T15:10:04;100448.31;;;13.77;44.73
5522;BME280;2783;48.730;8.006;2023-03-03T15:19:55;100453.72;;;13.04;45.04
5522;BME280;2783;48.730;8.006;2023-03-03T15:22:41;100445.28;;;12.90;46.39
5522;BME280;2783;48.730;8.006;2023-03-03T15:27:46;100443.06;;;12.77;47.02
5522;BME280;2783;48.730;8.006;2023-03-03T15:32:45;100441.09;;;12.57;47.04
5522;BME280;2783;48.730;8.006;2023-03-03T15:40:29;100441.31;;;12.25;48.26
5522;BME280;2783;48.730;8.006;2023-03-03T15:45:34;100440.47;;;12.23;48.56
5522;BME280;2783;48.730;8.006;2023-03-03T15:53:07;100449.41;;;12.22;49.45
5522;BME280;2783;48.730;8.006;2023-03-03T15:58:42;100450.19;;;11.98;50.08
5522;BME280;2783;48.730;8.006;2023-03-03T16:01:14;100454.78;;;11.93;50.52
5522;BME280;2783;48.730;8.006;2023-03-03T16:03:45;100449.97;;;11.76;50.22
5522;BME280;2783;48.730;8.006;2023-03-03T16:14:14;100447.38;;;11.44;50.46
5522;BME280;2783;48.730;8.006;2023-03-03T16:24:09;100455.06;;;11.24;52.78
5522;BME280;2783;48.730;8.006;2023-03-03T16:26:42;100457.84;;;11.20;53.50
5522;BME280;2783;48.730;8.006;2023-03-03T16:29:17;100460.81;;;11.09;54.69
5522;BME280;2783;48.730;8.006;2023-03-03T16:31:52;100464.81;;;10.93;53.74
5522;BME280;2783;48.730;8.006;2023-03-03T16:34:24;100467.66;;;10.86;54.52
5522;BME280;2783;48.730;8.006;2023-03-03T16:42:01;100480.75;;;10.59;55.17
5522;BME280;2783;48.730;8.006;2023-03-03T16:47:18;100488.19;;;10.47;55.37
5522;BME280;2783;48.730;8.006;2023-03-03T16:52:16;100483.31;;;10.29;57.22
5522;BME280;2783;48.730;8.006;2023-03-03T16:54:58;100490.72;;;10.16;57.75
5522;BME280;2783;48.730;8.006;2023-03-03T17:05:18;100506.66;;;9.75;58.43
5522;BME280;2783;48.730;8.006;2023-03-03T17:10:31;100506.25;;;9.54;58.85
5522;BME280;2783;48.730;8.006;2023-03-03T17:18:12;100512.13;;;9.25;60.24
5522;BME280;2783;48.730;8.006;2023-03-03T17:23:22;100517.72;;;9.10;61.28
5522;BME280;2783;48.730;8.006;2023-03-03T17:25:58;100515.25;;;9.01;61.97
5522;BME280;2783;48.730;8.006;2023-03-03T17:28:30;100525.19;;;8.88;63.19
5522;BME280;2783;48.730;8.006;2023-03-03T17:46:42;100548.19;;;8.36;65.10
5522;BME280;2783;48.730;8.006;2023-03-03T17:56:39;100575.81;;;8.16;66.01
5522;BME280;2783;48.730;8.006;2023-03-03T17:59:12;100565.31;;;8.10;66.32
5522;BME280;2783;48.730;8.006;2023-03-03T18:07:12;100574.44;;;7.86;68.03
5522;BME280;2783;48.730;8.006;2023-03-03T18:14:48;100580.75;;;7.77;69.46
5522;BME280;2783;48.730;8.006;2023-03-03T18:17:35;100590.50;;;7.75;69.84
5522;BME280;2783;48.730;8.006;2023-03-03T18:22:33;100592.38;;;7.66;70.01
5522;BME280;2783;48.730;8.006;2023-03-03T18:25:09;100596.84;;;7.62;70.43
5522;BME280;2783;48.730;8.006;2023-03-03T18:27:36;100597.69;;;7.61;69.96
5522;BME280;2783;48.730;8.006;2023-03-03T18:32:45;100602.16;;;7.56;70.16
5522;BME280;2783;48.730;8.006;2023-03-03T18:37:48;100604.91;;;7.49;69.62